Time;durP1;ratioP1;P1;durP2;ratioP2;P2;SDS_P1;SDS_P2;PMS_P1;PMS_P2;Temp;Humidity;BMP_temperature;BMP_pressure;BME280_temperature;BME280_humidity;BME280_pressure;Samples;Min_cycle;Max_cycle;Signal;HPM_P1;HPM_P2
2021/05/03 00:01:03;;;;;;;9.13;5.37;;;5.10;99.90;;;;;;5076646;28;20281;-77
2021/05/03 00:03:28;;;;;;;6.10;5.50;;;5.30;99.90;;;;;;5075481;28;20225;-78
2021/05/03 00:05:57;;;;;;;10.80;5.70;;;5.30;99.90;;;;;;5076846;28;20174;-78
2021/05/03 00:08:26;;;;;;;6.00;5.40;;;5.30;99.90;;;;;;5076440;28;20206;-78
2021/05/03 00:10:52;;;;;;;6.13;5.53;;;5.30;99.90;;;;;;5075330;28;20163;-78
2021/05/03 00:13:19;;;;;;;6.57;5.83;;;5.20;99.90;;;;;;5074342;28;20209;-78
2021/05/03 00:15:45;;;;;;;6.60;5.57;;;5.10;99.90;;;;;;5075003;28;20171;-78
2021/05/03 00:18:10;;;;;;;7.83;4.93;;;5.00;99.90;;;;;;5076636;28;20171;-78
2021/05/03 00:20:36;;;;;;;10.43;5.27;;;5.00;99.90;;;;;;5075210;28;20519;-78
2021/05/03 00:23:02;;;;;;;6.33;5.43;;;5.00;99.90;;;;;;5075225;28;20170;-78
2021/05/03 00:25:28;;;;;;;6.90;6.20;;;5.00;99.90;;;;;;5076263;28;20626;-78
2021/05/03 00:27:54;;;;;;;5.83;5.33;;;5.00;99.90;;;;;;5074926;28;20255;-78
2021/05/03 00:30:20;;;;;;;7.27;5.07;;;5.00;99.90;;;;;;5074929;28;20223;-78
2021/05/03 00:32:46;;;;;;;9.50;5.33;;;5.00;99.90;;;;;;5076371;28;20182;-78
2021/05/03 00:35:13;;;;;;;6.93;6.20;;;4.90;99.90;;;;;;5076507;28;20167;-78
2021/05/03 00:37:38;;;;;;;6.50;5.90;;;4.90;99.90;;;;;;5075902;28;20254;-78
2021/05/03 00:40:06;;;;;;;7.20;6.50;;;4.80;99.90;;;;;;5076387;28;20254;-78
2021/05/03 00:42:32;;;;;;;8.10;6.10;;;4.70;99.90;;;;;;5076250;28;20165;-78
2021/05/03 00:45:03;;;;;;;7.00;5.50;;;4.70;99.90;;;;;;5075579;28;20175;-78
2021/05/03 00:47:29;;;;;;;7.33;5.80;;;4.70;99.90;;;;;;5076018;28;20667;-78
2021/05/03 00:49:55;;;;;;;6.87;6.27;;;4.70;99.90;;;;;;5076137;28;20202;-78
2021/05/03 00:52:20;;;;;;;11.90;6.37;;;4.80;99.90;;;;;;5075533;28;20179;-79
2021/05/03 00:54:46;;;;;;;6.93;6.03;;;4.70;99.90;;;;;;5076087;28;20175;-78
2021/05/03 00:57:12;;;;;;;8.40;6.57;;;4.60;99.90;;;;;;5075706;28;20210;-78
2021/05/03 00:59:37;;;;;;;9.77;6.20;;;4.60;99.90;;;;;;5074444;28;20170;-78
2021/05/03 01:02:03;;;;;;;11.17;6.90;;;4.60;99.90;;;;;;5074423;28;20273;-78
2021/05/03 01:04:29;;;;;;;7.40;6.70;;;4.60;99.90;;;;;;5076234;28;20155;-78
2021/05/03 01:06:54;;;;;;;9.10;7.30;;;4.60;99.90;;;;;;5075474;28;20172;-78
2021/05/03 01:09:20;;;;;;;8.33;7.20;;;4.60;99.90;;;;;;5075546;28;20202;-78
2021/05/03 01:11:46;;;;;;;14.03;7.23;;;4.40;99.90;;;;;;5075932;28;20192;-78
2021/05/03 01:14:11;;;;;;;7.50;6.73;;;4.20;99.90;;;;;;5073986;28;20170;-78
2021/05/03 01:16:37;;;;;;;7.70;7.00;;;4.20;99.90;;;;;;5074087;28;20175;-78
2021/05/03 01:19:03;;;;;;;7.40;6.60;;;4.10;99.90;;;;;;5073954;28;20171;-78
2021/05/03 01:21:29;;;;;;;11.93;7.33;;;4.20;99.90;;;;;;5074718;28;20171;-78
2021/05/03 01:23:55;;;;;;;7.10;6.40;;;4.10;99.90;;;;;;5075290;28;20186;-78
2021/05/03 01:26:21;;;;;;;8.40;6.73;;;4.30;99.90;;;;;;5074530;28;20545;-78
2021/05/03 01:28:47;;;;;;;7.40;6.70;;;4.30;99.90;;;;;;5053849;28;20566;-78
2021/05/03 01:31:14;;;;;;;8.90;7.23;;;4.30;99.90;;;;;;5055390;28;20251;-78
2021/05/03 01:33:40;;;;;;;10.93;7.60;;;4.20;99.90;;;;;;5055558;28;20199;-78
2021/05/03 01:36:06;;;;;;;9.20;7.10;;;4.30;99.90;;;;;;5055271;28;20195;-78
2021/05/03 01:38:32;;;;;;;7.27;6.57;;;4.10;99.90;;;;;;5073476;28;20175;-78
2021/05/03 01:40:57;;;;;;;7.33;6.63;;;4.20;99.90;;;;;;5073899;28;20171;-78
2021/05/03 01:43:26;;;;;;;7.63;6.83;;;4.30;99.90;;;;;;5073862;28;20634;-78
2021/05/03 01:45:54;;;;;;;8.73;5.83;;;4.30;99.90;;;;;;5073728;28;20167;-78
2021/05/03 01:48:22;;;;;;;10.60;7.00;;;4.30;99.90;;;;;;5074569;28;20225;-78
2021/05/03 01:50:48;;;;;;;15.63;8.60;;;4.30;99.90;;;;;;5073470;28;20573;-78
2021/05/03 01:53:16;;;;;;;7.30;6.67;;;4.30;99.90;;;;;;5073635;28;20212;-78
2021/05/03 01:55:43;;;;;;;7.80;6.07;;;4.40;99.90;;;;;;5074671;28;20572;-78
2021/05/03 01:58:09;;;;;;;11.87;7.07;;;4.30;99.90;;;;;;5072465;28;20178;-78
2021/05/03 02:00:36;;;;;;;7.27;6.57;;;4.40;99.90;;;;;;5073318;28;20189;-78
2021/05/03 02:03:02;;;;;;;8.47;6.43;;;4.30;99.90;;;;;;5073308;28;20327;-78
2021/05/03 02:05:29;;;;;;;8.00;6.10;;;4.30;99.90;;;;;;5074516;28;20163;-78
2021/05/03 02:08:03;;;;;;;12.90;6.27;;;4.30;99.90;;;;;;5073350;28;20305;-78
2021/05/03 02:10:30;;;;;;;7.30;6.60;;;4.30;99.90;;;;;;5073876;28;20293;-78
2021/05/03 02:12:57;;;;;;;7.00;6.40;;;4.30;99.90;;;;;;5074453;28;20612;-78
2021/05/03 02:15:24;;;;;;;7.13;6.43;;;4.40;99.90;;;;;;5074301;28;20174;-78
2021/05/03 02:17:50;;;;;;;7.47;6.53;;;4.40;99.90;;;;;;5074114;28;20201;-78
2021/05/03 02:20:16;;;;;;;8.73;6.83;;;4.40;99.90;;;;;;5074020;28;20206;-78
2021/05/03 02:22:42;;;;;;;6.77;5.93;;;4.40;99.90;;;;;;5073128;28;20231;-78
2021/05/03 02:25:08;;;;;;;6.17;5.67;;;4.40;99.90;;;;;;5074313;28;20170;-78
2021/05/03 02:27:34;;;;;;;7.07;6.47;;;4.30;99.90;;;;;;5072263;28;20195;-78
2021/05/03 02:30:00;;;;;;;8.13;5.43;;;4.30;99.90;;;;;;5073975;28;20194;-78
2021/05/03 02:32:25;;;;;;;5.87;5.40;;;4.20;99.90;;;;;;5073953;28;20163;-78
2021/05/03 02:34:51;;;;;;;5.40;4.90;;;4.20;99.90;;;;;;5072775;28;20220;-78
2021/05/03 02:37:17;;;;;;;5.30;4.90;;;4.10;99.90;;;;;;5073839;28;20189;-78
2021/05/03 02:39:43;;;;;;;5.83;5.33;;;4.10;99.90;;;;;;5073680;28;20182;-78
2021/05/03 02:42:10;;;;;;;5.70;5.20;;;4.10;99.90;;;;;;5072694;28;20209;-78
2021/05/03 02:44:38;;;;;;;6.07;5.57;;;4.10;99.90;;;;;;5072544;28;20214;-78
2021/05/03 02:47:06;;;;;;;9.57;6.07;;;4.10;99.90;;;;;;5072951;28;20650;-78
2021/05/03 02:49:32;;;;;;;7.97;6.07;;;4.20;99.90;;;;;;5072423;28;20167;-79
2021/05/03 02:51:57;;;;;;;7.17;6.40;;;4.20;99.90;;;;;;5073931;28;20173;-78
2021/05/03 02:54:23;;;;;;;7.73;6.43;;;4.30;99.90;;;;;;5073785;28;20182;-79
2021/05/03 02:56:48;;;;;;;12.97;7.00;;;4.20;99.90;;;;;;5072239;28;20258;-78
2021/05/03 02:59:14;;;;;;;8.40;7.60;;;4.20;99.90;;;;;;5074053;28;20182;-78
2021/05/03 03:01:40;;;;;;;8.33;6.70;;;4.30;99.90;;;;;;5072550;28;20650;-78
2021/05/03 03:04:05;;;;;;;7.43;6.40;;;4.30;99.90;;;;;;5072092;28;20190;-78
2021/05/03 03:06:31;;;;;;;10.17;6.40;;;4.40;99.90;;;;;;5073391;28;20178;-78
2021/05/03 03:08:57;;;;;;;6.93;6.30;;;4.50;99.90;;;;;;5072729;28;20289;-78
2021/05/03 03:11:23;;;;;;;11.20;6.20;;;4.50;99.90;;;;;;5073612;28;20178;-78
2021/05/03 03:13:48;;;;;;;13.23;6.40;;;4.50;99.90;;;;;;5073635;28;20174;-78
2021/05/03 03:16:24;;;;;;;9.30;6.30;;;4.40;99.90;;;;;;5072786;28;20244;-78
2021/05/03 03:18:50;;;;;;;15.20;6.17;;;4.40;99.90;;;;;;5073610;28;20245;-78
2021/05/03 03:21:17;;;;;;;9.80;6.00;;;4.50;99.90;;;;;;5072057;28;20536;-78
2021/05/03 03:23:43;;;;;;;6.90;6.30;;;4.50;99.90;;;;;;5072143;28;20631;-78
2021/05/03 03:26:09;;;;;;;7.67;6.97;;;4.50;99.90;;;;;;5071998;28;20214;-78
2021/05/03 03:28:34;;;;;;;9.27;7.17;;;4.50;99.90;;;;;;5072880;28;20210;-78
2021/05/03 03:31:00;;;;;;;6.30;5.70;;;4.60;99.90;;;;;;5072857;28;20179;-78
2021/05/03 03:33:26;;;;;;;9.70;6.40;;;4.70;99.90;;;;;;5071819;28;20182;-78
2021/05/03 03:35:51;;;;;;;6.90;6.30;;;4.70;99.90;;;;;;5073298;28;20224;-78
2021/05/03 03:38:17;;;;;;;7.10;6.40;;;4.70;99.90;;;;;;5073230;28;20228;-78
2021/05/03 03:40:44;;;;;;;7.00;5.73;;;4.70;99.90;;;;;;5073333;28;20646;-78
2021/05/03 03:43:10;;;;;;;7.70;6.53;;;4.70;99.90;;;;;;5071898;28;20171;-78
2021/05/03 03:45:37;;;;;;;10.93;6.20;;;4.70;99.90;;;;;;5072769;28;20170;-78
2021/05/03 03:48:03;;;;;;;7.33;6.07;;;4.80;99.90;;;;;;5073174;28;20202;-79
2021/05/03 03:50:29;;;;;;;6.43;5.77;;;4.90;99.90;;;;;;5071821;28;20682;-78
2021/05/03 03:52:54;;;;;;;6.30;5.57;;;5.00;99.90;;;;;;5073175;28;20202;-79
2021/05/03 03:55:20;;;;;;;7.63;5.97;;;4.90;99.90;;;;;;5071541;28;20639;-78
2021/05/03 03:57:45;;;;;;;6.40;5.80;;;4.90;99.90;;;;;;5071725;28;20325;-78
2021/05/03 04:00:12;;;;;;;6.27;5.67;;;4.90;99.90;;;;;;5072951;28;20183;-78
2021/05/03 04:02:38;;;;;;;7.10;5.80;;;4.90;99.90;;;;;;5073100;28;20183;-78
2021/05/03 04:23:47;;;;;;;9.27;5.60;;;5.20;99.90;;;;;;5076574;28;20175;-78
2021/05/03 04:26:14;;;;;;;10.40;5.57;;;5.20;99.90;;;;;;5060320;28;20224;-78
2021/05/03 04:28:39;;;;;;;15.10;5.63;;;5.10;99.90;;;;;;5076135;28;20238;-78
2021/05/03 04:31:05;;;;;;;5.87;5.30;;;5.10;99.90;;;;;;5075241;28;20619;-78
2021/05/03 04:33:31;;;;;;;5.87;5.30;;;5.20;99.90;;;;;;5076779;28;20622;-78
2021/05/03 04:35:58;;;;;;;6.17;5.27;;;5.20;99.90;;;;;;5076305;28;20178;-78
2021/05/03 04:38:24;;;;;;;10.90;6.10;;;5.20;99.90;;;;;;5075994;28;20181;-78
2021/05/03 04:40:50;;;;;;;7.10;6.40;;;5.20;99.90;;;;;;5076110;28;20186;-78
2021/05/03 04:43:16;;;;;;;6.87;5.67;;;5.20;99.90;;;;;;5074766;28;20548;-79
2021/05/03 04:45:41;;;;;;;9.40;5.83;;;5.20;99.90;;;;;;5075636;28;20592;-78
2021/05/03 04:48:07;;;;;;;7.77;5.77;;;5.30;99.90;;;;;;5054466;28;20218;-78
2021/05/03 04:50:33;;;;;;;6.97;6.30;;;5.30;99.90;;;;;;5056434;28;20258;-78
2021/05/03 04:52:59;;;;;;;12.70;6.33;;;5.40;99.90;;;;;;5055946;28;20250;-78
2021/05/03 04:55:25;;;;;;;23.83;7.57;;;5.60;99.90;;;;;;5056196;28;20167;-78
2021/05/03 04:57:51;;;;;;;14.00;6.30;;;5.80;99.90;;;;;;5075998;28;20170;-78
2021/05/03 05:00:17;;;;;;;11.17;6.50;;;6.10;99.90;;;;;;5075941;28;20537;-78
2021/05/03 05:02:43;;;;;;;6.87;6.07;;;6.30;99.90;;;;;;5075813;28;20175;-78
2021/05/03 05:05:12;;;;;;;7.80;6.50;;;6.60;99.90;;;;;;5075873;28;20170;-78
2021/05/03 05:07:38;;;;;;;10.33;6.73;;;6.80;99.90;;;;;;5075056;28;20574;-78
2021/05/03 05:10:05;;;;;;;9.10;7.17;;;7.10;99.90;;;;;;5075796;28;20167;-78
2021/05/03 05:12:32;;;;;;;7.80;6.40;;;7.20;99.90;;;;;;5075699;28;20253;-79
2021/05/03 05:14:57;;;;;;;8.68;7.07;;;7.40;99.90;;;;;;5073351;28;20182;-79
2021/05/03 05:17:23;;;;;;;10.35;7.18;;;7.50;99.90;;;;;;5073966;28;20182;-79
2021/05/03 05:19:49;;;;;;;8.00;6.80;;;7.60;99.90;;;;;;5074347;28;20530;-79
2021/05/03 05:22:16;;;;;;;8.73;7.63;;;7.60;99.90;;;;;;5075423;28;20178;-78
2021/05/03 05:24:42;;;;;;;10.57;6.50;;;7.70;99.90;;;;;;5074049;28;20258;-78
2021/05/03 05:27:08;;;;;;;12.07;7.40;;;7.70;99.90;;;;;;5075415;28;20159;-78
2021/05/03 05:29:34;;;;;;;9.60;7.60;;;7.70;99.90;;;;;;5075461;28;20170;-78
2021/05/03 05:32:00;;;;;;;13.02;7.90;;;7.80;99.90;;;;;;5075356;28;20173;-79
2021/05/03 05:34:26;;;;;;;13.40;7.95;;;8.00;99.90;;;;;;5074676;28;20167;-78
2021/05/03 05:36:52;;;;;;;12.90;8.27;;;8.20;99.90;;;;;;5074807;28;20179;-78
2021/05/03 05:39:17;;;;;;;10.20;7.97;;;8.50;99.90;;;;;;5073959;28;20175;-78
2021/05/03 05:41:43;;;;;;;8.80;8.00;;;8.90;99.90;;;;;;5073889;28;20274;-78
2021/05/03 05:44:10;;;;;;;15.40;8.23;;;9.50;99.90;;;;;;5056937;28;20240;-78
2021/05/03 05:46:37;;;;;;;8.88;7.65;;;10.50;99.90;;;;;;5074366;28;20167;-79
2021/05/03 05:49:04;;;;;;;11.77;8.05;;;11.60;99.90;;;;;;5056831;28;20207;-79
2021/05/03 05:51:30;;;;;;;9.82;8.27;;;12.50;99.90;;;;;;5073645;28;20170;-79
2021/05/03 05:53:56;;;;;;;10.65;7.55;;;13.20;99.90;;;;;;5074664;28;20167;-79
2021/05/03 05:56:21;;;;;;;16.75;8.82;;;13.90;99.90;;;;;;5074557;28;20539;-79
2021/05/03 05:58:47;;;;;;;13.88;8.52;;;14.30;99.90;;;;;;5074810;28;20167;-79
2021/05/03 06:01:13;;;;;;;11.95;7.82;;;14.80;99.90;;;;;;5074748;28;20619;-79
2021/05/03 06:03:40;;;;;;;10.68;8.13;;;14.90;99.90;;;;;;5072991;28;20179;-80
2021/05/03 06:06:06;;;;;;;12.57;8.63;;;15.30;99.90;;;;;;5074278;28;20201;-79
2021/05/03 06:08:32;;;;;;;11.95;8.77;;;15.40;99.90;;;;;;5072643;28;20297;-79
2021/05/03 06:10:58;;;;;;;10.27;8.30;;;15.50;99.90;;;;;;5056836;28;20182;-79
2021/05/03 06:13:25;;;;;;;12.32;9.68;;;15.60;99.90;;;;;;5074449;28;20627;-79
2021/05/03 06:15:50;;;;;;;11.77;8.73;;;15.70;99.90;;;;;;5072558;28;20178;-79
2021/05/03 06:18:16;;;;;;;10.15;9.05;;;15.70;99.90;;;;;;5074306;28;20205;-79
2021/05/03 06:20:41;;;;;;;10.82;9.45;;;15.00;99.90;;;;;;5056542;28;20607;-79
2021/05/03 06:23:11;;;;;;;11.63;9.73;;;14.40;99.90;;;;;;5074181;28;20179;-80
2021/05/03 06:25:36;;;;;;;13.73;11.32;;;14.20;99.90;;;;;;5074367;28;20243;-79
2021/05/03 06:28:02;;;;;;;16.67;11.07;;;14.10;99.90;;;;;;5074174;28;20198;-80
2021/05/03 06:30:28;;;;;;;13.32;9.82;;;14.60;99.90;;;;;;5074197;28;20764;-80
2021/05/03 06:32:54;;;;;;;12.02;10.00;;;15.00;99.90;;;;;;5073862;28;20171;-80
2021/05/03 06:35:21;;;;;;;11.23;10.20;;;15.20;99.90;;;;;;5074041;28;20166;-79
2021/05/03 06:37:47;;;;;;;19.70;10.25;;;15.40;99.90;;;;;;5073848;28;20178;-80
2021/05/03 06:40:13;;;;;;;15.57;9.88;;;15.80;99.90;;;;;;5073705;28;20167;-79
2021/05/03 06:53:48;;;;;;;13.60;10.38;;;20.00;99.40;;;;;;5070695;28;20185;-78
2021/05/03 06:56:14;;;;;;;15.68;10.38;;;20.00;98.90;;;;;;5071888;28;20679;-78
2021/05/03 06:58:39;;;;;;;14.93;10.73;;;20.30;97.60;;;;;;5072514;28;20174;-79
2021/05/03 07:01:06;;;;;;;20.77;11.07;;;20.40;97.50;;;;;;5072615;28;20642;-79
2021/05/03 07:03:32;;;;;;;20.23;10.98;;;21.00;96.20;;;;;;5073850;28;20174;-79
2021/05/03 07:05:57;;;;;;;18.67;10.82;;;20.70;96.30;;;;;;5073179;28;20186;-79
2021/05/03 07:08:25;;;;;;;21.80;11.43;;;21.10;96.00;;;;;;5071262;28;20194;-79
2021/05/03 07:10:53;;;;;;;16.25;12.07;;;21.10;95.30;;;;;;5072752;28;20216;-78
2021/05/03 07:13:20;;;;;;;17.77;12.63;;;20.40;96.80;;;;;;5072255;28;20177;-79
2021/05/03 07:15:46;;;;;;;14.18;12.27;;;20.10;97.80;;;;;;5072911;28;20171;-80
2021/05/03 07:18:12;;;;;;;16.23;12.23;;;20.70;96.60;;;;;;5073685;28;20547;-80
2021/05/03 07:20:37;;;;;;;20.80;13.13;;;20.30;97.50;;;;;;5073190;28;20245;-81
2021/05/03 07:23:05;;;;;;;13.00;11.63;;;20.70;97.10;;;;;;5071723;28;20243;-81
2021/05/03 07:25:31;;;;;;;21.48;11.60;;;20.60;96.50;;;;;;5071578;28;20210;-81
2021/05/03 07:27:57;;;;;;;13.60;12.30;;;20.80;96.90;;;;;;5071795;28;20218;-80
2021/05/03 07:30:23;;;;;;;20.77;12.82;;;21.30;96.40;;;;;;5072223;28;20670;-81
2021/05/03 07:32:48;;;;;;;14.02;12.63;;;22.20;95.10;;;;;;5072164;28;20170;-81
2021/05/03 07:35:14;;;;;;;13.93;12.48;;;23.10;94.20;;;;;;5071605;28;20649;-81
2021/05/03 07:37:40;;;;;;;14.02;12.10;;;24.10;92.90;;;;;;5072884;28;20186;-82
2021/05/03 07:40:07;;;;;;;13.73;11.75;;;24.60;92.30;;;;;;5072957;28;20171;-82
2021/05/03 07:42:33;;;;;;;13.27;12.07;;;24.50;91.30;;;;;;5071909;28;20170;-81
2021/05/03 07:44:59;;;;;;;12.32;11.07;;;24.20;91.30;;;;;;5071973;28;20319;-84
2021/05/03 07:47:26;;;;;;;13.73;12.00;;;24.70;91.20;;;;;;5072804;28;20591;-80
2021/05/03 07:49:52;;;;;;;13.43;11.80;;;24.60;90.80;;;;;;5071714;28;20604;-82
2021/05/03 07:52:18;;;;;;;13.45;12.25;;;24.40;90.90;;;;;;5071765;28;20170;-83
2021/05/03 07:54:43;;;;;;;14.07;12.77;;;24.00;91.20;;;;;;5072579;28;20198;-81
2021/05/03 07:57:09;;;;;;;13.40;11.98;;;23.70;90.70;;;;;;5055654;28;20304;-81
2021/05/03 07:59:35;;;;;;;14.07;12.73;;;23.60;90.80;;;;;;5056970;28;20171;-81
2021/05/03 08:02:00;;;;;;;14.13;12.73;;;23.90;89.20;;;;;;5056925;28;20275;-82
2021/05/03 08:04:26;;;;;;;15.90;11.75;;;23.90;90.80;;;;;;5055969;28;20616;-81
2021/05/03 08:06:57;;;;;;;13.30;12.10;;;24.20;90.20;;;;;;5064521;28;20158;-80
2021/05/03 08:09:24;;;;;;;13.07;11.90;;;25.30;89.00;;;;;;5073288;28;20550;-78
2021/05/03 08:11:51;;;;;;;14.00;12.43;;;25.30;86.10;;;;;;5071942;28;20647;-79
2021/05/03 08:14:19;;;;;;;13.82;12.50;;;24.80;85.80;;;;;;5075161;28;20522;-79
2021/05/03 08:16:48;;;;;;;12.98;11.85;;;24.10;89.20;;;;;;5075138;28;20178;-84
2021/05/03 08:19:14;;;;;;;13.27;11.35;;;24.20;86.40;;;;;;5058296;28;20171;-80
2021/05/03 08:27:27;;;;;;;10.85;9.95;;;23.70;88.00;;;;;;5074817;28;20675;-83
2021/05/03 08:29:52;;;;;;;9.98;9.27;;;23.70;87.00;;;;;;5075944;28;20262;-89
2021/05/03 08:32:18;;;;;;;10.80;9.68;;;23.60;87.40;;;;;;5075408;28;20193;-86
2021/05/03 08:34:44;;;;;;;10.13;9.25;;;24.20;84.10;;;;;;5054161;28;20250;-84
2021/05/03 08:37:12;;;;;;;10.93;9.82;;;25.10;83.20;;;;;;5054558;28;20202;-81
2021/05/03 08:39:37;;;;;;;11.43;9.90;;;25.40;82.60;;;;;;5068014;28;21018;-80
2021/05/03 08:42:04;;;;;;;10.95;10.02;;;24.30;84.30;;;;;;5073777;28;20182;-83
2021/05/03 08:44:30;;;;;;;10.40;9.70;;;24.20;85.90;;;;;;5075762;28;20162;-81
2021/05/03 08:46:57;;;;;;;10.50;9.63;;;24.00;85.90;;;;;;5074638;28;20182;-83
2021/05/03 08:49:34;;;;;;;16.23;10.40;;;23.90;85.40;;;;;;5075227;28;20660;-82
2021/05/03 08:52:13;;;;;;;10.55;9.52;;;23.20;87.00;;;;;;5074217;28;20205;-83
2021/05/03 08:54:44;;;;;;;9.32;8.60;;;22.70;85.00;;;;;;5075276;28;20183;-83
2021/05/03 08:57:11;;;;;;;8.88;8.07;;;22.50;86.20;;;;;;5075343;28;20178;-83
2021/05/03 08:59:37;;;;;;;13.73;9.65;;;22.50;83.20;;;;;;5074181;28;20265;-82
2021/05/03 09:02:05;;;;;;;9.55;8.73;;;22.10;84.20;;;;;;5070362;28;20182;-83
2021/05/03 09:04:32;;;;;;;9.57;8.23;;;21.60;84.50;;;;;;5058845;28;20182;-83
2021/05/03 09:07:16;;;;;;;11.65;8.70;;;21.90;83.90;;;;;;5054918;28;20179;-82
2021/05/03 09:09:53;;;;;;;9.15;8.50;;;21.90;84.30;;;;;;5056106;28;20167;-83
2021/05/03 09:12:21;;;;;;;9.55;8.63;;;21.70;84.40;;;;;;5065536;28;20514;-83
2021/05/03 09:14:54;;;;;;;11.52;10.02;;;21.20;86.40;;;;;;5075454;28;20163;-82
2021/05/03 09:17:27;;;;;;;11.80;8.90;;;22.10;85.90;;;;;;5073147;28;20212;-80
2021/05/03 09:19:55;;;;;;;10.52;8.35;;;22.70;86.40;;;;;;5079968;28;20208;-81
2021/05/03 09:22:27;;;;;;;9.77;8.95;;;22.90;82.50;;;;;;5080193;28;20181;-80
2021/05/03 09:24:53;;;;;;;11.18;8.82;;;22.70;82.50;;;;;;5091123;28;20211;-81
2021/05/03 09:27:22;;;;;;;9.60;8.80;;;22.70;83.20;;;;;;5088149;28;20162;-87
2021/05/03 09:29:48;;;;;;;9.00;8.30;;;23.80;81.00;;;;;;5094487;28;20181;-85
2021/05/03 09:32:21;;;;;;;8.70;7.90;;;24.90;80.60;;;;;;5094407;28;20257;-84
2021/05/03 09:34:53;;;;;;;8.85;8.15;;;25.70;77.80;;;;;;5061580;28;20495;-79
2021/05/03 09:37:18;;;;;;;7.13;6.63;;;25.70;77.70;;;;;;5059683;28;20584;-81
2021/05/03 09:39:57;;;;;;;7.80;7.10;;;25.60;73.80;;;;;;5055901;28;20166;-80
2021/05/03 09:42:24;;;;;;;7.20;6.70;;;25.20;74.20;;;;;;5059249;28;20187;-79
2021/05/03 09:45:21;;;;;;;7.78;7.03;;;25.50;74.50;;;;;;5073553;28;20173;-80
2021/05/03 09:47:50;;;;;;;6.72;6.10;;;25.80;72.80;;;;;;5066480;28;20202;-80
2021/05/03 09:50:18;;;;;;;7.15;6.40;;;26.20;73.50;;;;;;5058135;28;20183;-80
2021/05/03 09:53:03;;;;;;;7.60;6.80;;;26.40;73.30;;;;;;5064774;28;20201;-80
2021/05/03 09:55:45;;;;;;;5.85;5.30;;;27.10;70.00;;;;;;5063191;28;20239;-80
2021/05/03 09:58:19;;;;;;;8.32;6.35;;;26.70;68.30;;;;;;5064744;28;20179;-78
2021/05/03 10:00:56;;;;;;;6.18;5.63;;;25.60;69.90;;;;;;5061571;28;20175;-80
2021/05/03 10:03:37;;;;;;;6.85;6.25;;;25.90;68.60;;;;;;5074007;28;20166;-80
2021/05/03 10:06:08;;;;;;;6.60;5.80;;;26.70;69.30;;;;;;5065214;28;20178;-88
2021/05/03 10:08:36;;;;;;;6.68;6.05;;;27.20;68.90;;;;;;5070683;28;20195;-90
2021/05/03 10:11:05;;;;;;;5.63;5.22;;;26.90;68.20;;;;;;5054928;28;20531;-79
2021/05/03 10:13:32;;;;;;;6.68;6.15;;;25.70;70.40;;;;;;5076197;28;20623;-79
2021/05/03 10:16:00;;;;;;;7.22;6.55;;;24.90;71.20;;;;;;5065030;28;20175;-89
2021/05/03 10:18:28;;;;;;;6.85;6.10;;;25.40;71.70;;;;;;5061061;28;20171;-90
2021/05/03 10:20:57;;;;;;;6.63;6.13;;;25.90;70.80;;;;;;5059060;28;20177;-88
2021/05/03 10:23:24;;;;;;;7.25;5.90;;;25.10;69.10;;;;;;5074645;28;20163;-89
2021/05/03 10:25:56;;;;;;;6.57;5.97;;;24.30;71.90;;;;;;5071864;28;20175;-87
2021/05/03 10:28:22;;;;;;;6.05;5.03;;;24.40;73.40;;;;;;5058916;28;20210;-85
2021/05/03 10:30:48;;;;;;;4.90;4.50;;;24.20;69.10;;;;;;5066735;28;20522;-87
2021/05/03 10:33:15;;;;;;;6.43;4.60;;;24.80;70.00;;;;;;5071046;28;20175;-89
2021/05/03 10:35:46;;;;;;;4.75;4.25;;;25.90;67.30;;;;;;5072368;28;20290;-89
2021/05/03 10:38:30;;;;;;;5.05;4.32;;;26.10;65.90;;;;;;5072543;28;20238;-92
2021/05/03 10:40:58;;;;;;;6.00;4.93;;;25.80;64.20;;;;;;5073218;28;20515;-89
2021/05/03 10:43:28;;;;;;;5.10;4.70;;;25.00;66.90;;;;;;5062898;28;20182;-90
2021/05/03 10:48:56;;;;;;;4.60;4.30;;;25.30;69.70;;;;;;5074287;28;20194;-88
2021/05/03 10:57:27;;;;;;;9.63;5.63;;;23.30;69.70;;;;;;5071247;28;20228;-81
2021/05/03 10:59:55;;;;;;;5.68;5.10;;;23.30;72.20;;;;;;5070267;28;20236;-80
2021/05/03 11:02:22;;;;;;;6.57;5.53;;;23.20;70.00;;;;;;5074950;28;20210;-80
2021/05/03 11:05:09;;;;;;;5.72;5.22;;;23.70;69.10;;;;;;5072187;28;20611;-80
2021/05/03 11:07:34;;;;;;;6.78;6.13;;;24.20;69.70;;;;;;5054185;28;20221;-84
2021/05/03 11:10:00;;;;;;;8.75;6.25;;;23.70;72.50;;;;;;5051579;28;20171;-82
2021/05/03 11:12:28;;;;;;;17.05;5.93;;;23.90;71.10;;;;;;5062240;28;20175;-82
2021/05/03 11:15:23;;;;;;;6.38;5.85;;;23.30;70.00;;;;;;5070527;28;20619;-82
2021/05/03 11:18:20;;;;;;;6.95;5.07;;;22.20;73.70;;;;;;5068001;28;20175;-84
2021/05/03 11:21:19;;;;;;;6.30;5.75;;;23.50;70.70;;;;;;5055704;28;20215;-82
2021/05/03 11:23:45;;;;;;;7.35;5.10;;;23.80;71.70;;;;;;5072094;28;20655;-81
2021/05/03 11:26:34;;;;;;;6.68;5.88;;;24.10;67.20;;;;;;5076222;28;20199;-80
2021/05/03 11:29:09;;;;;;;6.60;5.60;;;24.80;68.00;;;;;;5056048;28;20203;-83
2021/05/03 11:31:36;;;;;;;7.32;6.65;;;24.50;69.80;;;;;;5065520;28;20175;-85
2021/05/03 11:34:08;;;;;;;5.32;4.93;;;24.60;70.40;;;;;;5073497;28;20174;-81
2021/05/03 11:36:39;;;;;;;9.52;5.15;;;23.70;69.20;;;;;;5068523;28;20185;-84
2021/05/03 11:39:18;;;;;;;5.43;4.78;;;22.90;70.80;;;;;;5071720;28;20638;-81
2021/05/03 11:44:47;;;;;;;5.55;4.72;;;23.40;70.70;;;;;;5068503;28;20195;-80
2021/05/03 11:47:13;;;;;;;5.28;4.78;;;23.60;69.30;;;;;;5073250;28;20190;-83
2021/05/03 11:49:44;;;;;;;6.20;5.75;;;23.80;68.00;;;;;;5080830;28;20250;-83
2021/05/03 11:52:10;;;;;;;7.00;5.43;;;23.80;68.10;;;;;;5071554;28;20175;-84
2021/05/03 11:54:42;;;;;;;7.05;4.95;;;22.70;71.10;;;;;;5056747;28;20172;-86
2021/05/03 11:57:07;;;;;;;6.30;4.57;;;23.10;69.30;;;;;;5067051;28;20179;-84
2021/05/03 11:59:34;;;;;;;6.07;4.55;;;22.90;71.10;;;;;;5053198;28;20175;-83
2021/05/03 12:02:11;;;;;;;5.85;5.13;;;22.40;70.80;;;;;;5060830;28;20176;-85
2021/05/03 12:04:44;;;;;;;5.50;5.07;;;21.60;73.10;;;;;;5051643;28;20178;-83
2021/05/03 12:07:21;;;;;;;5.88;5.40;;;21.80;76.50;;;;;;5067806;28;20182;-83
2021/05/03 12:10:07;;;;;;;5.80;5.40;;;21.50;73.30;;;;;;5070468;28;20193;-82
2021/05/03 12:12:49;;;;;;;6.63;6.15;;;21.30;76.00;;;;;;5086318;28;20224;-82
2021/05/03 12:15:29;;;;;;;8.05;5.05;;;21.00;76.80;;;;;;5072075;28;20663;-82
2021/05/03 12:17:57;;;;;;;8.45;6.05;;;19.80;76.80;;;;;;5072908;28;20167;-82
2021/05/03 12:20:25;;;;;;;7.03;6.28;;;19.60;80.00;;;;;;5059375;28;20619;-82
2021/05/03 12:23:02;;;;;;;6.35;5.75;;;19.50;79.00;;;;;;5070254;28;20174;-82
2021/05/03 12:25:53;;;;;;;5.60;5.20;;;19.70;79.90;;;;;;5072785;28;20174;-83
2021/05/03 12:28:21;;;;;;;4.72;4.32;;;19.60;77.80;;;;;;5067094;28;20231;-82
2021/05/03 12:30:48;;;;;;;8.07;5.18;;;19.60;76.50;;;;;;5067710;28;20541;-83
2021/05/03 12:33:18;;;;;;;5.32;4.78;;;19.50;77.80;;;;;;5051472;28;20264;-82
2021/05/03 12:35:48;;;;;;;6.13;5.68;;;19.80;79.00;;;;;;5055758;28;20195;-81
2021/05/03 12:38:15;;;;;;;12.75;5.18;;;19.60;81.70;;;;;;5072603;28;20628;-82
2021/05/03 12:40:41;;;;;;;4.82;4.43;;;19.70;78.20;;;;;;5069937;28;20225;-82
2021/05/03 12:43:07;;;;;;;4.65;4.10;;;19.70;77.50;;;;;;5075331;28;20587;-86
2021/05/03 12:51:05;;;;;;;6.65;5.30;;;19.30;78.30;;;;;;5067796;28;20179;-83
2021/05/03 12:53:39;;;;;;;5.45;5.00;;;19.20;79.20;;;;;;5065767;28;20170;-88
2021/05/03 12:56:15;;;;;;;7.88;5.05;;;18.40;80.00;;;;;;5075524;28;20227;-82
2021/05/03 13:29:45;;;;;;;5.18;4.03;;;18.60;80.40;;;;;;5071152;28;20687;-80
2021/05/03 13:32:20;;;;;;;4.22;3.83;;;18.40;79.60;;;;;;5057908;28;20179;-81
2021/05/03 13:34:50;;;;;;;5.38;4.30;;;18.80;82.10;;;;;;5074101;28;20566;-81
2021/05/03 13:37:17;;;;;;;4.50;4.10;;;18.90;82.30;;;;;;5073063;28;20182;-82
2021/05/03 13:39:43;;;;;;;4.47;4.07;;;18.90;80.00;;;;;;5074659;28;20626;-82
2021/05/03 13:42:10;;;;;;;7.18;4.28;;;18.80;80.90;;;;;;5062280;28;20182;-83
2021/05/03 13:44:37;;;;;;;4.40;4.00;;;18.70;80.40;;;;;;5055129;28;20650;-83
2021/05/03 13:47:04;;;;;;;15.32;4.53;;;18.90;80.40;;;;;;5071695;28;20183;-83
2021/05/03 13:49:30;;;;;;;5.13;4.72;;;18.80;82.80;;;;;;5056281;28;20705;-86
2021/05/03 13:51:57;;;;;;;7.15;4.43;;;18.40;83.60;;;;;;5071461;28;20264;-86
2021/05/03 13:54:25;;;;;;;10.20;4.65;;;18.00;83.20;;;;;;5054670;28;20174;-86
2021/05/03 13:56:54;;;;;;;7.47;4.47;;;17.90;82.40;;;;;;5072341;28;20167;-84
2021/05/03 13:59:20;;;;;;;6.47;4.28;;;18.00;82.70;;;;;;5074289;28;20186;-86
2021/05/03 14:01:46;;;;;;;4.70;4.13;;;17.80;83.30;;;;;;5072931;28;20186;-86
2021/05/03 14:04:11;;;;;;;5.18;4.03;;;17.50;83.70;;;;;;5073113;28;20623;-85
2021/05/03 14:06:37;;;;;;;4.10;3.70;;;17.50;85.30;;;;;;5073000;28;20179;-87
2021/05/03 14:09:03;;;;;;;6.78;3.95;;;17.80;83.10;;;;;;5073570;28;20286;-87
2021/05/03 14:11:28;;;;;;;3.70;3.40;;;18.10;84.70;;;;;;5064427;28;20187;-88
2021/05/03 14:13:54;;;;;;;4.78;4.32;;;18.40;85.00;;;;;;5054495;28;20557;-88